ADDS METAR Data INFO
IDs: Format: Raw Decoded Include TAF

Data at: 0451 UTC 21 Feb 2018

KW63 201455Z AUTO 21004KT 10SM BKN005 OVC014 15/15 A3048 RMK AO1
KW63 201435Z AUTO 00000KT 7SM BKN003 OVC014 13/13 A3047 RMK AO1
KW63 201415Z AUTO 21003KT 4SM OVC003 13/13 A3047 RMK AO1
KW63 201355Z AUTO 00000KT 1SM OVC003 12/12 A3046 RMK AO1
KW63 201335Z AUTO 00000KT 3/4SM OVC003 11/11 A3047 RMK AO1
KW63 201315Z AUTO 00000KT 3/4SM OVC003 11/11 A3046 RMK AO1
KW63 201255Z AUTO 00000KT 3/4SM OVC003 11/11 A3045 RMK AO1
KW63 201235Z AUTO 00000KT 1/4SM OVC003 11/11 A3045 RMK AO1
KW63 201215Z AUTO 00000KT 1/2SM OVC003 11/11 A3044 RMK AO1
KW63 201155Z AUTO 00000KT 1 3/4SM OVC003 10/10 A3044 RMK AO1
KW63 201135Z AUTO 00000KT 3/4SM OVC003 10/10 A3042 RMK AO1
KW63 201115Z AUTO 00000KT 3/4SM OVC003 10/10 A3043 RMK AO1
KW63 201055Z AUTO 00000KT 1/2SM OVC003 10/10 A3042 RMK AO1
KW63 201035Z AUTO 00000KT 1/2SM OVC003 10/10 A3041 RMK AO1
KW63 201015Z AUTO 00000KT 1/2SM OVC003 10/10 A3040 RMK AO1
KW63 200955Z AUTO 00000KT 3/4SM OVC003 10/10 A3040 RMK AO1
KW63 200935Z AUTO 00000KT 1 1/4SM OVC003 10/10 A3040 RMK AO1
KW63 200915Z AUTO 00000KT 1 1/4SM OVC003 10/10 A3040 RMK AO1
KW63 200855Z AUTO 00000KT 1 1/2SM OVC003 10/10 A3040 RMK AO1
KW63 200835Z AUTO 00000KT 2SM OVC003 10/10 A3040 RMK AO1
KW63 200815Z AUTO 00000KT 4SM OVC005 10/10 A3039 RMK AO1
KW63 200755Z AUTO 00000KT 10SM OVC007 10/10 A3040 RMK AO1
KW63 200735Z AUTO 00000KT 10SM OVC007 10/10 A3040 RMK AO1
KW63 200715Z AUTO 00000KT 10SM OVC009 10/10 A3040 RMK AO1
KW63 200655Z AUTO 00000KT 10SM OVC009 10/10 A3041 RMK AO1
KW63 200635Z AUTO 00000KT 10SM OVC011 10/10 A3041 RMK AO1
KW63 200615Z AUTO 19003KT 10SM OVC011 10/10 A3041 RMK AO1
KW63 200555Z AUTO 19003KT 10SM OVC011 10/10 A3042 RMK AO1
KW63 200535Z AUTO 19003KT 10SM SCT004 OVC013 10/10 A3042 RMK AO1
KW63 200515Z AUTO 00000KT 7SM BKN004 OVC015 10/10 A3042 RMK AO1
KW63 200455Z AUTO 00000KT 7SM BKN006 OVC018 10/10 A3042 RMK AO1
KW63 200435Z AUTO 19003KT 7SM SCT004 SCT013 OVC018 10/10 A3042 RMK AO1
KW63 200415Z AUTO 00000KT 7SM OVC004 10/10 A3042 RMK AO1
KW63 200355Z AUTO 00000KT 7SM OVC006 10/10 A3042 RMK AO1
KW63 200335Z AUTO 00000KT 7SM SCT003 BKN008 OVC013 10/10 A3041 RMK AO1
KW63 200315Z AUTO 19004KT 7SM BKN003 OVC013 10/10 A3041 RMK AO1
KW63 200255Z AUTO 00000KT 7SM BKN003 OVC007 10/10 A3042 RMK AO1
KW63 200235Z AUTO 17003KT 7SM OVC003 10/10 A3041 RMK AO1
KW63 200215Z AUTO 00000KT 7SM OVC005 10/10 A3040 RMK AO1
KW63 200155Z AUTO 00000KT 7SM OVC005 10/10 A3040 RMK AO1
KW63 200135Z AUTO 00000KT 7SM OVC005 10/10 A3040 RMK AO1
KW63 200115Z AUTO 00000KT 10SM OVC005 10/10 A3040 RMK AO1
KW63 200055Z AUTO 00000KT 7SM OVC003 10/10 A3040 RMK AO1
KW63 200035Z AUTO 00000KT 7SM OVC003 10/10 A3039 RMK AO1
KW63 200015Z AUTO 00000KT 7SM OVC003 10/10 A3039 RMK AO1
KW63 192355Z AUTO 00000KT 7SM OVC003 10/10 A3039 RMK AO1
KW63 192335Z AUTO 00000KT 4SM OVC003 10/10 A3039 RMK AO1
KW63 192315Z AUTO 00000KT 4SM OVC003 10/10 A3039 RMK AO1
KW63 192255Z AUTO 00000KT 4SM OVC007 10/10 A3038 RMK AO1
KW63 192235Z AUTO 00000KT 10SM OVC007 10/10 A3038 RMK AO1
KW63 192215Z AUTO 00000KT 10SM OVC007 10/10 A3037 RMK AO1
KW63 192155Z AUTO 00000KT 10SM OVC007 11/11 A3037 RMK AO1
KW63 192135Z AUTO 00000KT 10SM OVC007 10/10 A3037 RMK AO1
KW63 192115Z AUTO 00000KT 10SM OVC007 11/11 A3037 RMK AO1
KW63 192055Z AUTO 00000KT 10SM OVC007 11/11 A3037 RMK AO1
KW63 192035Z AUTO 00000KT 10SM OVC007 11/11 A3038 RMK AO1
KW63 192015Z AUTO 00000KT 10SM OVC007 10/10 A3038 RMK AO1
KW63 191955Z AUTO 00000KT 10SM OVC007 10/10 A3038 RMK AO1
KW63 191935Z AUTO 00000KT 10SM OVC007 10/10 A3038 RMK AO1
KW63 191915Z AUTO 00000KT 10SM OVC007 10/10 A3039 RMK AO1
KW63 191855Z AUTO 00000KT 10SM OVC005 09/09 A3039 RMK AO1
KW63 191835Z AUTO 18003KT 10SM OVC005 09/09 A3039 RMK AO1
KW63 191815Z AUTO 19003KT 10SM OVC005 08/08 A3040 RMK AO1
KW63 191755Z AUTO 16004KT 10SM OVC005 08/08 A3041 RMK AO1
KW63 191735Z AUTO 18003KT 7SM OVC005 07/07 A3042 RMK AO1
KW63 191715Z AUTO 17003KT 10SM BKN005 OVC014 07/07 A3044 RMK AO1
KW63 191655Z AUTO 00000KT 10SM SCT005 OVC016 07/07 A3045 RMK AO1